Terminal Aerodrome Forecast
Issued by NWS Charleston, WV

Home | Current Version | Previous Version | Text Only | Print | Product List | Glossary On
Versions: 1 2 3 4 5 6 7 8 9 10 11 12 13 14 15 16 17 18 19 20 21 22 23 24 25 26 27
000
FTUS41 KRLX 020249 AAB
TAFEKN
TAF AMD
KEKN 020249Z 0203/0224 35004KT 4SM -SHRA BR OVC005
     FM020400 00000KT 4SM BR OVC003
     FM020900 00000KT 1/2SM FG VV001
     FM021300 VRB03KT 3/4SM BR OVC001
     FM022000 VRB03KT P6SM BKN010
     FM022200 VRB03KT P6SM BKN050
     FM022300 VRB03KT P6SM BKN008=

USA.gov is the U.S. government's official web portal to all federal, state and local government web resources and services.